createdAt,value
2022-11-29T00:03:35.523Z,5.90
2022-11-29T00:07:17.486Z,5.80
2022-11-29T00:11:04.933Z,5.70
2022-11-29T00:14:47.108Z,5.70
2022-11-29T00:18:29.099Z,5.70
2022-11-29T00:22:11.166Z,5.60
2022-11-29T00:25:54.354Z,5.60
2022-11-29T00:29:36.358Z,5.60
2022-11-29T00:33:18.258Z,5.60
2022-11-29T00:37:00.159Z,5.50
2022-11-29T00:40:42.101Z,5.40
2022-11-29T00:44:24.083Z,5.40
2022-11-29T00:48:06.276Z,5.40
2022-11-29T00:51:48.145Z,5.40
2022-11-29T00:55:30.015Z,5.40
2022-11-29T00:59:11.874Z,5.40
2022-11-29T01:02:53.984Z,5.30
2022-11-29T01:06:35.893Z,5.30
2022-11-29T01:10:17.907Z,5.30
2022-11-29T01:14:01.713Z,5.20
2022-11-29T01:17:43.815Z,5.20
2022-11-29T01:21:25.779Z,5.10
2022-11-29T01:25:08.969Z,5.10
2022-11-29T01:28:53.122Z,5.10
2022-11-29T01:32:36.368Z,5.20
2022-11-29T01:36:18.328Z,5.10
2022-11-29T01:40:00.201Z,5.10
2022-11-29T01:44:14.491Z,5.10
2022-11-29T01:47:57.594Z,5.10
2022-11-29T01:51:42.372Z,5.10
2022-11-29T01:55:24.343Z,5.10
2022-11-29T01:59:14.602Z,4.90
2022-11-29T02:03:02.214Z,4.90
2022-11-29T02:06:44.718Z,4.90
2022-11-29T02:10:43.747Z,4.90
2022-11-29T02:14:55.805Z,5.00
2022-11-29T02:18:53.867Z,5.00
2022-11-29T02:22:46.476Z,5.10
2022-11-29T02:26:40.459Z,5.10
2022-11-29T02:30:57.861Z,5.10
2022-11-29T02:35:06.089Z,5.10
2022-11-29T02:39:03.135Z,5.00
2022-11-29T02:43:06.136Z,5.00
2022-11-29T02:47:36.871Z,4.90
2022-11-29T02:51:34.839Z,4.80
2022-11-29T02:55:20.497Z,4.80
2022-11-29T02:59:40.154Z,4.80
2022-11-29T03:03:35.718Z,4.60
2022-11-29T03:08:00.809Z,4.60
2022-11-29T03:11:50.832Z,4.60
2022-11-29T03:15:46.561Z,4.60
2022-11-29T03:19:49.527Z,4.60
2022-11-29T03:24:00.243Z,4.60
2022-11-29T03:27:50.867Z,4.70
2022-11-29T03:31:38.956Z,4.70
2022-11-29T03:35:20.913Z,4.80
2022-11-29T03:39:07.591Z,4.80
2022-11-29T03:43:06.365Z,4.80
2022-11-29T03:47:09.364Z,4.90
2022-11-29T03:50:56.484Z,4.90
2022-11-29T03:54:59.922Z,5.00
2022-11-29T03:59:14.895Z,5.00
2022-11-29T04:03:08.202Z,5.10
2022-11-29T04:07:01.918Z,5.30
2022-11-29T04:10:43.751Z,5.40
2022-11-29T04:14:34.978Z,5.50
2022-11-29T04:18:31.583Z,5.60
2022-11-29T04:23:12.059Z,5.70
2022-11-29T04:27:14.167Z,5.70
2022-11-29T04:31:12.771Z,5.80
2022-11-29T04:35:31.923Z,5.90
2022-11-29T04:39:42.779Z,5.90
2022-11-29T04:43:41.469Z,5.80
2022-11-29T04:47:55.624Z,5.80
2022-11-29T04:52:02.002Z,5.70
2022-11-29T04:55:52.352Z,5.60
2022-11-29T04:59:53.787Z,5.60
2022-11-29T05:04:02.492Z,5.60
2022-11-29T05:08:23.086Z,5.70
2022-11-29T05:12:29.544Z,5.80
2022-11-29T05:16:41.990Z,5.80
2022-11-29T05:20:23.893Z,5.90
2022-11-29T05:24:33.622Z,5.90
2022-11-29T05:28:38.049Z,6.00
2022-11-29T05:32:30.392Z,6.10
2022-11-29T05:36:49.693Z,6.00
2022-11-29T05:40:34.519Z,5.90
2022-11-29T05:44:39.009Z,5.90
2022-11-29T05:48:46.642Z,5.90
2022-11-29T05:53:05.123Z,5.90
2022-11-29T05:56:57.755Z,6.00
2022-11-29T06:01:03.664Z,6.00
2022-11-29T06:05:11.592Z,6.00
2022-11-29T06:09:09.014Z,5.90
2022-11-29T06:13:11.279Z,5.90
2022-11-29T06:17:02.374Z,5.90
2022-11-29T06:20:44.209Z,5.90
2022-11-29T06:24:56.543Z,5.80
2022-11-29T06:29:03.415Z,5.80
2022-11-29T06:33:21.489Z,5.80
2022-11-29T06:37:20.106Z,5.80
2022-11-29T06:41:02.733Z,5.80
2022-11-29T06:44:45.199Z,5.80
2022-11-29T06:48:34.514Z,5.80
2022-11-29T06:52:45.240Z,5.80
2022-11-29T06:57:00.180Z,5.80
2022-11-29T07:00:48.645Z,5.80
2022-11-29T07:04:33.284Z,5.90
2022-11-29T07:08:21.796Z,5.90
2022-11-29T07:12:04.200Z,6.00
2022-11-29T07:15:54.604Z,6.00
2022-11-29T07:19:48.156Z,6.10
2022-11-29T07:23:45.348Z,6.10
2022-11-29T07:27:30.174Z,6.10
2022-11-29T07:31:40.768Z,6.10
2022-11-29T07:35:38.713Z,6.10
2022-11-29T07:39:35.597Z,6.10
2022-11-29T07:43:26.261Z,6.00
2022-11-29T07:47:09.029Z,6.00
2022-11-29T07:50:50.906Z,6.00
2022-11-29T07:54:32.885Z,6.00
2022-11-29T07:58:16.595Z,5.90
2022-11-29T08:01:59.392Z,5.90
2022-11-29T08:05:46.443Z,6.00
2022-11-29T08:09:28.390Z,6.00
2022-11-29T08:13:10.381Z,6.00
2022-11-29T08:16:52.370Z,6.00
2022-11-29T08:20:34.304Z,6.00
2022-11-29T08:24:16.215Z,6.00
2022-11-29T08:27:58.076Z,6.00
2022-11-29T08:31:40.197Z,5.90
2022-11-29T08:35:23.730Z,5.90
2022-11-29T08:39:09.297Z,6.00
2022-11-29T08:42:51.505Z,6.00
2022-11-29T08:46:52.353Z,6.00
2022-11-29T08:50:34.403Z,6.00
2022-11-29T08:54:16.476Z,6.00
2022-11-29T08:58:06.975Z,6.00
2022-11-29T09:01:49.021Z,6.00
2022-11-29T09:05:30.933Z,6.00
2022-11-29T09:09:12.834Z,6.00
2022-11-29T09:12:55.379Z,6.00
2022-11-29T09:16:38.496Z,6.10
2022-11-29T09:20:20.793Z,6.10
2022-11-29T09:24:06.306Z,6.20
2022-11-29T09:27:48.184Z,6.30
2022-11-29T09:31:31.385Z,6.30
2022-11-29T09:35:13.367Z,6.30
2022-11-29T09:38:55.320Z,6.30
2022-11-29T09:42:40.159Z,6.30
2022-11-29T09:46:22.209Z,6.30
2022-11-29T09:50:23.070Z,6.30
2022-11-29T09:54:26.199Z,6.30
2022-11-29T09:58:14.067Z,6.40
2022-11-29T10:02:14.924Z,6.40
2022-11-29T10:06:25.219Z,6.40
2022-11-29T10:10:16.397Z,6.50
2022-11-29T10:14:11.922Z,6.60
2022-11-29T10:18:18.922Z,6.60
2022-11-29T10:22:08.172Z,6.60
2022-11-29T10:25:57.872Z,6.50
2022-11-29T10:29:39.956Z,6.50
2022-11-29T10:33:30.682Z,6.50
2022-11-29T10:37:19.921Z,6.50
2022-11-29T10:41:07.909Z,6.50
2022-11-29T10:44:49.808Z,6.60
2022-11-29T10:48:34.106Z,6.70
2022-11-29T10:52:21.407Z,6.70
2022-11-29T10:56:14.563Z,6.80
2022-11-29T11:00:07.301Z,6.80
2022-11-29T11:03:57.685Z,6.80
2022-11-29T11:07:39.670Z,6.70
2022-11-29T11:11:32.887Z,6.70
2022-11-29T11:15:26.577Z,6.70
2022-11-29T11:19:27.841Z,6.70
2022-11-29T11:23:29.916Z,6.70
2022-11-29T11:27:12.035Z,6.70
2022-11-29T11:30:57.726Z,6.70
2022-11-29T11:34:50.480Z,6.70
2022-11-29T11:38:34.541Z,6.60
2022-11-29T11:42:39.468Z,6.60
2022-11-29T11:46:21.757Z,6.50
2022-11-29T11:50:06.892Z,6.60
2022-11-29T11:53:55.575Z,6.60
2022-11-29T11:57:37.569Z,6.70
2022-11-29T12:01:45.677Z,6.70
2022-11-29T12:05:27.575Z,6.70
2022-11-29T12:09:10.002Z,6.70
2022-11-29T12:12:53.600Z,6.80
2022-11-29T12:16:38.973Z,6.80
2022-11-29T12:20:35.852Z,6.80
2022-11-29T12:24:41.606Z,6.70
2022-11-29T12:28:30.476Z,6.70
2022-11-29T12:32:12.353Z,6.70
2022-11-29T12:35:57.292Z,6.70
2022-11-29T12:39:44.753Z,6.80
2022-11-29T12:44:05.315Z,6.80
2022-11-29T12:48:13.676Z,6.90
2022-11-29T12:52:34.555Z,7.00
2022-11-29T12:56:25.951Z,7.00
2022-11-29T13:00:19.013Z,7.00
2022-11-29T13:04:03.985Z,7.00
2022-11-29T13:08:04.064Z,7.00
2022-11-29T13:12:19.706Z,7.00
2022-11-29T13:16:30.682Z,7.00
2022-11-29T13:20:34.797Z,7.00
2022-11-29T13:24:25.739Z,7.00
2022-11-29T13:28:25.127Z,7.00
2022-11-29T13:32:14.743Z,7.00
2022-11-29T13:36:13.746Z,6.90
2022-11-29T13:40:00.644Z,7.00
2022-11-29T13:43:51.920Z,7.00
2022-11-29T13:47:59.139Z,7.10
2022-11-29T13:51:41.456Z,7.10
2022-11-29T13:55:29.465Z,7.10
2022-11-29T13:59:30.539Z,7.10
2022-11-29T14:03:24.978Z,7.10
2022-11-29T14:07:18.515Z,7.00
2022-11-29T14:11:14.567Z,7.10
2022-11-29T14:15:11.501Z,7.10
2022-11-29T14:19:08.402Z,7.10
2022-11-29T14:23:05.343Z,7.10
2022-11-29T14:26:47.515Z,7.10
2022-11-29T14:30:49.771Z,7.00
2022-11-29T14:34:35.128Z,7.00
2022-11-29T14:38:20.200Z,7.00
2022-11-29T14:42:06.278Z,7.00
2022-11-29T14:46:06.419Z,7.10
2022-11-29T14:49:48.483Z,7.10
2022-11-29T14:53:35.722Z,7.10
2022-11-29T14:57:48.462Z,7.10
2022-11-29T15:01:30.707Z,7.10
2022-11-29T15:05:34.491Z,7.10
2022-11-29T15:09:20.687Z,7.10
2022-11-29T15:13:04.141Z,7.20
2022-11-29T15:16:46.093Z,7.10
2022-11-29T15:27:56.821Z,7.00
2022-11-29T15:31:42.166Z,7.10
2022-11-29T15:35:24.652Z,7.00
2022-11-29T15:39:44.521Z,7.00
2022-11-29T15:43:38.124Z,7.00
2022-11-29T15:52:05.699Z,7.00
2022-11-29T15:55:50.621Z,7.00
2022-11-29T15:59:35.516Z,7.00
2022-11-29T16:03:25.212Z,7.00
2022-11-29T16:07:07.360Z,6.90
2022-11-29T16:10:53.094Z,6.90
2022-11-29T16:14:35.114Z,6.90
2022-11-29T16:18:25.458Z,6.90
2022-11-29T16:22:25.851Z,6.90
2022-11-29T16:26:10.745Z,6.80
2022-11-29T16:29:55.159Z,6.90
2022-11-29T16:33:38.443Z,6.90
2022-11-29T16:37:28.783Z,6.90
2022-11-29T16:41:34.992Z,6.90
2022-11-29T16:45:29.151Z,6.90
2022-11-29T16:49:31.869Z,6.90
2022-11-29T16:53:36.417Z,6.90
2022-11-29T16:57:18.794Z,6.90
2022-11-29T17:01:15.203Z,6.80
2022-11-29T17:04:58.183Z,6.80
2022-11-29T17:08:40.124Z,6.80
2022-11-29T17:12:22.328Z,6.80
2022-11-29T17:16:04.624Z,6.80
2022-11-29T17:19:46.517Z,6.80
2022-11-29T17:23:28.427Z,6.80
2022-11-29T17:27:10.367Z,6.80
2022-11-29T17:30:52.928Z,6.80
2022-11-29T17:34:35.259Z,6.80
2022-11-29T17:38:17.225Z,6.70
2022-11-29T17:41:59.066Z,6.60
2022-11-29T17:45:40.985Z,6.60
2022-11-29T17:49:23.122Z,6.50
2022-11-29T17:53:05.709Z,6.40
2022-11-29T17:56:47.586Z,6.50
2022-11-29T18:00:29.511Z,6.50
2022-11-29T18:04:11.519Z,6.50
2022-11-29T18:07:59.261Z,6.50
2022-11-29T18:11:48.958Z,6.50
2022-11-29T18:15:33.026Z,6.50
2022-11-29T18:19:17.338Z,6.50
2022-11-29T18:23:03.627Z,6.50
2022-11-29T18:26:48.455Z,6.50
2022-11-29T18:30:30.402Z,6.50
2022-11-29T18:34:14.084Z,6.40
2022-11-29T18:38:14.626Z,6.40
2022-11-29T18:41:57.445Z,6.50
2022-11-29T18:45:39.503Z,6.50
2022-11-29T18:49:22.434Z,6.50
2022-11-29T18:53:04.291Z,6.60
2022-11-29T18:56:46.611Z,6.60
2022-11-29T19:00:28.555Z,6.50
2022-11-29T19:04:13.545Z,6.50
2022-11-29T19:07:55.560Z,6.50
2022-11-29T19:11:37.473Z,6.40
2022-11-29T19:15:19.373Z,6.40
2022-11-29T19:19:02.130Z,6.50
2022-11-29T19:22:44.078Z,6.50
2022-11-29T19:26:28.115Z,6.40
2022-11-29T19:30:10.637Z,6.40
2022-11-29T19:33:53.958Z,6.50
2022-11-29T19:37:35.865Z,6.50
2022-11-29T19:41:19.004Z,6.50
2022-11-29T19:45:16.555Z,6.50
2022-11-29T19:49:00.494Z,6.50
2022-11-29T19:52:42.330Z,6.40
2022-11-29T19:56:24.652Z,6.40
2022-11-29T20:00:07.499Z,6.40
2022-11-29T20:03:50.371Z,6.40
2022-11-29T20:07:32.324Z,6.40
2022-11-29T20:11:19.781Z,6.40
2022-11-29T20:15:01.701Z,6.40
2022-11-29T20:18:50.641Z,6.40
2022-11-29T20:22:33.193Z,6.40
2022-11-29T20:26:17.886Z,6.40
2022-11-29T20:29:59.780Z,6.40
2022-11-29T20:33:43.191Z,6.40
2022-11-29T20:37:37.099Z,6.40
2022-11-29T20:41:33.097Z,6.40
2022-11-29T20:45:15.903Z,6.50
2022-11-29T20:49:03.127Z,6.50
2022-11-29T20:52:52.087Z,6.60
2022-11-29T20:56:33.969Z,6.60
2022-11-29T21:00:16.167Z,6.70
2022-11-29T21:03:58.159Z,6.70
2022-11-29T21:07:40.159Z,6.70
2022-11-29T21:11:22.352Z,6.80
2022-11-29T21:15:04.782Z,6.80
2022-11-29T21:18:48.762Z,6.80
2022-11-29T21:23:03.670Z,6.80
2022-11-29T21:26:51.347Z,6.90
2022-11-29T21:30:33.387Z,6.90
2022-11-29T21:34:15.438Z,6.90
2022-11-29T21:38:00.812Z,6.90
2022-11-29T21:41:42.996Z,6.90
2022-11-29T21:45:24.885Z,6.90
2022-11-29T21:49:06.846Z,6.90
2022-11-29T21:52:52.377Z,6.90
2022-11-29T21:56:34.308Z,6.90
2022-11-29T22:00:16.597Z,6.90
2022-11-29T22:03:58.478Z,6.90
2022-11-29T22:07:40.419Z,6.80
2022-11-29T22:11:36.452Z,6.80
2022-11-29T22:15:24.220Z,6.80
2022-11-29T22:19:06.863Z,6.80
2022-11-29T22:22:48.952Z,6.70
2022-11-29T22:26:30.931Z,6.70
2022-11-29T22:30:13.082Z,6.70
2022-11-29T22:33:56.015Z,6.70
2022-11-29T22:37:37.909Z,6.70
2022-11-29T22:41:19.859Z,6.70
2022-11-29T22:45:04.095Z,6.80
2022-11-29T22:48:47.973Z,6.70
2022-11-29T22:52:29.806Z,6.70
2022-11-29T22:56:12.245Z,6.70
2022-11-29T22:59:54.198Z,6.70
2022-11-29T23:03:37.760Z,6.70
2022-11-29T23:07:19.644Z,6.70
2022-11-29T23:11:04.360Z,6.70
2022-11-29T23:14:49.187Z,6.70
2022-11-29T23:18:34.125Z,6.70
2022-11-29T23:22:16.129Z,6.70
2022-11-29T23:25:58.553Z,6.70
2022-11-29T23:29:40.528Z,6.60
2022-11-29T23:33:23.571Z,6.60
2022-11-29T23:37:05.445Z,6.60
2022-11-29T23:40:47.410Z,6.60
2022-11-29T23:44:29.270Z,6.60
2022-11-29T23:48:11.124Z,6.70
2022-11-29T23:51:53.007Z,6.70
2022-11-29T23:55:34.862Z,6.70
2022-11-29T23:59:16.885Z,6.70
